Airfield :
LOGIN :

Register | Disclaimer

   EN    FR    IT 

 










Legend :    VFR   Marginal VFR   IFR   Intensive IFR   Very Intensive IFR
Visi :
Ceiling :
>= 8 km
>= 3000ft
5 to 8 km
1000 to 3000 ft
1500m to 5 km
500 to 1000 ft
800 to 1500m
200 to 500 ft
< 800m
< 200 ft
Symbols :   Thunderstorms  Fog  Heavy snow  Heavy precipitations  Wind > 20 kt
SIGMETs :     Misc.  Thunderstorms  Icing  Turbulence  Mountain Waves  Volcanic Ashes






- Airport Elevation : 463 ft
- IATA code : SZY
- AIRPORT CLOSED.


EPSY - Szczytno

CURRENT METAR :
  • 251230Z 23010KT 9999 SCT014 BKN025 09/07 Q0994

EXPIRED METARs :
  • 251200Z 22008KT 7000 SCT006 BKN014 08/07 Q0994
  • 251130Z 22008KT 7000 -RA BKN006 OVC018 07/07 Q0994
  • 251100Z 21008KT 5000 BR OVC003 06/06 Q0995
  • 251030Z 21008KT 6000 OVC003 05/05 Q0995
  • 251000Z 21009KT 5000 -RA BR OVC003 04/04 Q0995

TAF TAF EPSY
Valid from the 25 at 12:00 until the 25 at 21:00 UTC


251130Z 2512/2521 23010KT 8000 -RA SCT010 BKN018
PROB40
TEMPO 2512/2518 25015G25KT 4000 SHRA SCT007 BKN013CB



MET'MAP, your aeronautical weather chart ! - Copyright ORBIFLY December 2007 - Disclaimer

ORBIFLY MET'MAP TEAM :

Programming & Development : Alexandra Zaïnal
Concept & original design : Baudouin d'Aumeries
Assistance for programming : Marc-Olivier Méhu
Technical & hardware support : Manuel Goepfert

Contact : metmap@orbifly.com




SOURCES & CREDITS :

   NOAA